sensor_id;sensor_type;location;lat;lon;timestamp;P1;durP1;ratioP1;P2;durP2;ratioP2
49131;SDS011;35149;51.196;6.204;2023-07-09T00:02:23;9.20;;;8.27;;
49131;SDS011;35149;51.196;6.204;2023-07-09T00:04:52;9.95;;;7.82;;
49131;SDS011;35149;51.196;6.204;2023-07-09T00:09:58;9.85;;;7.13;;
49131;SDS011;35149;51.196;6.204;2023-07-09T00:12:26;8.23;;;7.30;;
49131;SDS011;35149;51.196;6.204;2023-07-09T00:14:58;8.60;;;7.20;;
49131;SDS011;35149;51.196;6.204;2023-07-09T00:17:28;9.15;;;7.68;;
49131;SDS011;35149;51.196;6.204;2023-07-09T00:20:05;8.00;;;7.20;;
49131;SDS011;35149;51.196;6.204;2023-07-09T00:22:44;8.50;;;7.70;;
49131;SDS011;35149;51.196;6.204;2023-07-09T00:25:14;9.27;;;7.80;;
49131;SDS011;35149;51.196;6.204;2023-07-09T00:27:49;8.98;;;7.35;;
49131;SDS011;35149;51.196;6.204;2023-07-09T00:30:21;7.50;;;6.70;;
49131;SDS011;35149;51.196;6.204;2023-07-09T00:32:54;7.72;;;6.70;;
49131;SDS011;35149;51.196;6.204;2023-07-09T00:35:20;8.25;;;7.43;;
49131;SDS011;35149;51.196;6.204;2023-07-09T00:37:52;7.50;;;6.47;;
49131;SDS011;35149;51.196;6.204;2023-07-09T00:40:22;7.95;;;6.95;;
49131;SDS011;35149;51.196;6.204;2023-07-09T00:42:55;9.10;;;6.80;;
49131;SDS011;35149;51.196;6.204;2023-07-09T00:45:25;9.57;;;6.63;;
49131;SDS011;35149;51.196;6.204;2023-07-09T00:48:02;7.07;;;6.20;;
49131;SDS011;35149;51.196;6.204;2023-07-09T00:50:35;9.02;;;6.43;;
49131;SDS011;35149;51.196;6.204;2023-07-09T00:53:17;7.57;;;6.80;;
49131;SDS011;35149;51.196;6.204;2023-07-09T00:55:54;8.13;;;6.70;;
49131;SDS011;35149;51.196;6.204;2023-07-09T00:58:32;8.20;;;6.30;;
49131;SDS011;35149;51.196;6.204;2023-07-09T01:01:05;7.18;;;6.20;;
49131;SDS011;35149;51.196;6.204;2023-07-09T01:06:28;7.20;;;5.75;;
49131;SDS011;35149;51.196;6.204;2023-07-09T01:09:03;9.05;;;7.03;;
49131;SDS011;35149;51.196;6.204;2023-07-09T01:11:36;8.32;;;6.63;;
49131;SDS011;35149;51.196;6.204;2023-07-09T01:14:05;7.90;;;6.10;;
49131;SDS011;35149;51.196;6.204;2023-07-09T01:16:38;7.70;;;6.03;;
49131;SDS011;35149;51.196;6.204;2023-07-09T01:19:20;7.10;;;6.25;;
49131;SDS011;35149;51.196;6.204;2023-07-09T01:21:52;7.93;;;6.32;;
49131;SDS011;35149;51.196;6.204;2023-07-09T01:27:17;7.82;;;6.53;;
49131;SDS011;35149;51.196;6.204;2023-07-09T01:29:47;6.70;;;6.10;;
49131;SDS011;35149;51.196;6.204;2023-07-09T01:32:18;7.47;;;6.38;;
49131;SDS011;35149;51.196;6.204;2023-07-09T01:34:49;7.82;;;6.60;;
49131;SDS011;35149;51.196;6.204;2023-07-09T01:37:20;7.65;;;6.22;;
49131;SDS011;35149;51.196;6.204;2023-07-09T01:39:51;8.32;;;5.78;;
49131;SDS011;35149;51.196;6.204;2023-07-09T01:42:19;7.07;;;6.38;;
49131;SDS011;35149;51.196;6.204;2023-07-09T01:44:52;6.57;;;5.88;;
49131;SDS011;35149;51.196;6.204;2023-07-09T01:47:24;6.47;;;5.88;;
49131;SDS011;35149;51.196;6.204;2023-07-09T01:49:53;7.85;;;6.22;;
49131;SDS011;35149;51.196;6.204;2023-07-09T01:52:32;7.18;;;6.00;;
49131;SDS011;35149;51.196;6.204;2023-07-09T01:55:04;6.28;;;5.68;;
49131;SDS011;35149;51.196;6.204;2023-07-09T01:57:41;7.18;;;6.25;;
49131;SDS011;35149;51.196;6.204;2023-07-09T02:00:14;6.88;;;6.18;;
49131;SDS011;35149;51.196;6.204;2023-07-09T02:02:47;6.85;;;5.38;;
49131;SDS011;35149;51.196;6.204;2023-07-09T02:05:16;8.77;;;6.22;;
49131;SDS011;35149;51.196;6.204;2023-07-09T02:07:48;8.20;;;5.63;;
49131;SDS011;35149;51.196;6.204;2023-07-09T02:10:15;6.93;;;5.85;;
49131;SDS011;35149;51.196;6.204;2023-07-09T02:12:45;7.97;;;5.93;;
49131;SDS011;35149;51.196;6.204;2023-07-09T02:15:12;7.50;;;5.85;;
49131;SDS011;35149;51.196;6.204;2023-07-09T02:17:43;8.13;;;6.18;;
49131;SDS011;35149;51.196;6.204;2023-07-09T02:20:10;6.72;;;6.13;;
49131;SDS011;35149;51.196;6.204;2023-07-09T02:22:39;7.03;;;5.70;;
49131;SDS011;35149;51.196;6.204;2023-07-09T02:25:08;7.03;;;5.75;;
49131;SDS011;35149;51.196;6.204;2023-07-09T02:27:36;6.53;;;5.80;;
49131;SDS011;35149;51.196;6.204;2023-07-09T02:30:05;6.82;;;5.63;;
49131;SDS011;35149;51.196;6.204;2023-07-09T02:32:38;7.10;;;5.82;;
49131;SDS011;35149;51.196;6.204;2023-07-09T02:35:10;7.32;;;5.80;;
49131;SDS011;35149;51.196;6.204;2023-07-09T02:37:39;6.95;;;6.03;;
49131;SDS011;35149;51.196;6.204;2023-07-09T02:40:11;8.65;;;6.07;;
49131;SDS011;35149;51.196;6.204;2023-07-09T02:42:41;7.10;;;5.90;;
49131;SDS011;35149;51.196;6.204;2023-07-09T02:45:11;6.63;;;5.90;;
49131;SDS011;35149;51.196;6.204;2023-07-09T02:47:38;6.28;;;5.32;;
49131;SDS011;35149;51.196;6.204;2023-07-09T02:50:07;6.18;;;5.57;;
49131;SDS011;35149;51.196;6.204;2023-07-09T02:52:34;8.50;;;6.10;;
49131;SDS011;35149;51.196;6.204;2023-07-09T02:55:01;8.02;;;6.47;;
49131;SDS011;35149;51.196;6.204;2023-07-09T02:57:29;6.72;;;5.90;;
49131;SDS011;35149;51.196;6.204;2023-07-09T02:59:58;8.13;;;6.20;;
49131;SDS011;35149;51.196;6.204;2023-07-09T03:02:25;7.32;;;5.57;;
49131;SDS011;35149;51.196;6.204;2023-07-09T03:04:55;8.15;;;5.15;;
49131;SDS011;35149;51.196;6.204;2023-07-09T03:07:24;8.70;;;5.70;;
49131;SDS011;35149;51.196;6.204;2023-07-09T03:09:54;6.72;;;6.10;;
49131;SDS011;35149;51.196;6.204;2023-07-09T03:12:23;7.85;;;5.78;;
49131;SDS011;35149;51.196;6.204;2023-07-09T03:14:49;7.05;;;6.00;;
49131;SDS011;35149;51.196;6.204;2023-07-09T03:17:16;8.45;;;6.20;;
49131;SDS011;35149;51.196;6.204;2023-07-09T03:19:43;7.25;;;5.80;;
49131;SDS011;35149;51.196;6.204;2023-07-09T03:22:09;7.82;;;5.65;;
49131;SDS011;35149;51.196;6.204;2023-07-09T03:24:36;7.93;;;6.13;;
49131;SDS011;35149;51.196;6.204;2023-07-09T03:27:09;8.45;;;6.00;;
49131;SDS011;35149;51.196;6.204;2023-07-09T03:29:35;7.45;;;5.63;;
49131;SDS011;35149;51.196;6.204;2023-07-09T03:32:02;6.45;;;5.72;;
49131;SDS011;35149;51.196;6.204;2023-07-09T03:34:29;6.53;;;5.40;;
49131;SDS011;35149;51.196;6.204;2023-07-09T03:36:56;8.23;;;6.07;;
49131;SDS011;35149;51.196;6.204;2023-07-09T03:39:22;6.40;;;5.72;;
49131;SDS011;35149;51.196;6.204;2023-07-09T03:41:55;7.38;;;5.18;;
49131;SDS011;35149;51.196;6.204;2023-07-09T03:44:21;7.32;;;5.72;;
49131;SDS011;35149;51.196;6.204;2023-07-09T03:46:50;6.13;;;5.53;;
49131;SDS011;35149;51.196;6.204;2023-07-09T03:49:18;7.30;;;5.60;;
49131;SDS011;35149;51.196;6.204;2023-07-09T03:51:44;8.00;;;5.65;;
49131;SDS011;35149;51.196;6.204;2023-07-09T03:54:14;7.20;;;6.25;;
49131;SDS011;35149;51.196;6.204;2023-07-09T03:56:40;6.72;;;6.03;;
49131;SDS011;35149;51.196;6.204;2023-07-09T03:59:09;6.85;;;6.15;;
49131;SDS011;35149;51.196;6.204;2023-07-09T04:01:36;7.70;;;6.32;;
49131;SDS011;35149;51.196;6.204;2023-07-09T04:04:03;6.40;;;5.80;;
49131;SDS011;35149;51.196;6.204;2023-07-09T04:06:30;8.73;;;5.93;;
49131;SDS011;35149;51.196;6.204;2023-07-09T04:08:57;7.97;;;6.32;;
49131;SDS011;35149;51.196;6.204;2023-07-09T04:11:28;6.93;;;5.70;;
49131;SDS011;35149;51.196;6.204;2023-07-09T04:14:01;7.90;;;5.78;;
49131;SDS011;35149;51.196;6.204;2023-07-09T04:16:28;10.55;;;6.72;;
49131;SDS011;35149;51.196;6.204;2023-07-09T04:18:58;8.70;;;6.18;;
49131;SDS011;35149;51.196;6.204;2023-07-09T04:21:25;6.82;;;5.63;;
49131;SDS011;35149;51.196;6.204;2023-07-09T04:23:52;8.60;;;6.32;;
49131;SDS011;35149;51.196;6.204;2023-07-09T04:26:18;6.63;;;5.93;;
49131;SDS011;35149;51.196;6.204;2023-07-09T04:28:45;10.18;;;6.50;;
49131;SDS011;35149;51.196;6.204;2023-07-09T04:31:16;6.97;;;5.65;;
49131;SDS011;35149;51.196;6.204;2023-07-09T04:33:46;6.70;;;5.60;;
49131;SDS011;35149;51.196;6.204;2023-07-09T04:36:15;7.53;;;6.45;;
49131;SDS011;35149;51.196;6.204;2023-07-09T04:38:42;9.88;;;6.68;;
49131;SDS011;35149;51.196;6.204;2023-07-09T04:41:08;7.40;;;6.40;;
49131;SDS011;35149;51.196;6.204;2023-07-09T04:43:35;7.03;;;6.28;;
49131;SDS011;35149;51.196;6.204;2023-07-09T04:46:02;7.53;;;6.18;;
49131;SDS011;35149;51.196;6.204;2023-07-09T04:48:29;7.90;;;6.35;;
49131;SDS011;35149;51.196;6.204;2023-07-09T04:50:56;11.18;;;6.78;;
49131;SDS011;35149;51.196;6.204;2023-07-09T04:53:25;14.23;;;6.85;;
49131;SDS011;35149;51.196;6.204;2023-07-09T04:55:52;9.55;;;6.72;;
49131;SDS011;35149;51.196;6.204;2023-07-09T04:58:24;7.53;;;6.60;;
49131;SDS011;35149;51.196;6.204;2023-07-09T05:00:51;8.07;;;6.35;;
49131;SDS011;35149;51.196;6.204;2023-07-09T05:03:26;6.40;;;5.78;;
49131;SDS011;35149;51.196;6.204;2023-07-09T05:05:53;8.70;;;6.13;;
49131;SDS011;35149;51.196;6.204;2023-07-09T05:08:20;9.73;;;6.38;;
49131;SDS011;35149;51.196;6.204;2023-07-09T05:10:52;9.23;;;6.30;;
49131;SDS011;35149;51.196;6.204;2023-07-09T05:13:19;9.48;;;6.55;;
49131;SDS011;35149;51.196;6.204;2023-07-09T05:15:48;7.03;;;5.88;;
49131;SDS011;35149;51.196;6.204;2023-07-09T05:18:18;9.23;;;6.25;;
49131;SDS011;35149;51.196;6.204;2023-07-09T05:20:47;7.80;;;6.00;;
49131;SDS011;35149;51.196;6.204;2023-07-09T05:23:14;11.43;;;6.10;;
49131;SDS011;35149;51.196;6.204;2023-07-09T05:25:41;8.27;;;5.95;;
49131;SDS011;35149;51.196;6.204;2023-07-09T05:28:17;8.45;;;6.18;;
49131;SDS011;35149;51.196;6.204;2023-07-09T05:30:46;8.98;;;6.20;;
49131;SDS011;35149;51.196;6.204;2023-07-09T05:33:13;7.93;;;6.15;;
49131;SDS011;35149;51.196;6.204;2023-07-09T05:35:47;8.82;;;5.63;;
49131;SDS011;35149;51.196;6.204;2023-07-09T05:38:14;8.23;;;6.45;;
49131;SDS011;35149;51.196;6.204;2023-07-09T05:40:43;7.38;;;6.38;;
49131;SDS011;35149;51.196;6.204;2023-07-09T05:43:15;8.73;;;5.63;;
49131;SDS011;35149;51.196;6.204;2023-07-09T05:45:45;8.15;;;5.88;;
49131;SDS011;35149;51.196;6.204;2023-07-09T05:48:15;7.82;;;6.07;;
49131;SDS011;35149;51.196;6.204;2023-07-09T05:50:44;10.93;;;6.40;;
49131;SDS011;35149;51.196;6.204;2023-07-09T05:53:11;9.15;;;6.57;;
49131;SDS011;35149;51.196;6.204;2023-07-09T05:55:41;6.85;;;6.15;;
49131;SDS011;35149;51.196;6.204;2023-07-09T05:58:11;8.82;;;6.07;;
49131;SDS011;35149;51.196;6.204;2023-07-09T06:00:40;13.05;;;6.47;;
49131;SDS011;35149;51.196;6.204;2023-07-09T06:03:10;12.35;;;6.07;;
49131;SDS011;35149;51.196;6.204;2023-07-09T06:05:43;8.93;;;6.85;;
49131;SDS011;35149;51.196;6.204;2023-07-09T06:08:12;7.45;;;6.63;;
49131;SDS011;35149;51.196;6.204;2023-07-09T06:10:58;10.73;;;6.97;;
49131;SDS011;35149;51.196;6.204;2023-07-09T06:13:28;12.02;;;6.97;;
49131;SDS011;35149;51.196;6.204;2023-07-09T06:15:58;10.18;;;6.82;;
49131;SDS011;35149;51.196;6.204;2023-07-09T06:18:27;8.80;;;5.72;;
49131;SDS011;35149;51.196;6.204;2023-07-09T06:20:58;11.23;;;6.75;;
49131;SDS011;35149;51.196;6.204;2023-07-09T06:23:26;10.82;;;5.78;;
49131;SDS011;35149;51.196;6.204;2023-07-09T06:25:53;12.32;;;6.60;;
49131;SDS011;35149;51.196;6.204;2023-07-09T06:28:21;8.82;;;5.97;;
49131;SDS011;35149;51.196;6.204;2023-07-09T06:30:50;10.35;;;5.93;;
49131;SDS011;35149;51.196;6.204;2023-07-09T06:33:18;10.70;;;6.00;;
49131;SDS011;35149;51.196;6.204;2023-07-09T06:35:49;10.15;;;5.97;;
49131;SDS011;35149;51.196;6.204;2023-07-09T06:38:17;10.07;;;5.60;;
49131;SDS011;35149;51.196;6.204;2023-07-09T06:40:45;7.82;;;5.45;;
49131;SDS011;35149;51.196;6.204;2023-07-09T06:43:12;12.70;;;7.15;;
49131;SDS011;35149;51.196;6.204;2023-07-09T06:45:54;8.98;;;6.60;;
49131;SDS011;35149;51.196;6.204;2023-07-09T06:48:23;13.02;;;6.57;;
49131;SDS011;35149;51.196;6.204;2023-07-09T06:50:52;9.23;;;5.88;;
49131;SDS011;35149;51.196;6.204;2023-07-09T06:53:20;11.98;;;5.72;;
49131;SDS011;35149;51.196;6.204;2023-07-09T06:55:47;12.95;;;6.13;;
49131;SDS011;35149;51.196;6.204;2023-07-09T06:58:19;9.25;;;6.80;;
49131;SDS011;35149;51.196;6.204;2023-07-09T07:00:47;9.30;;;6.43;;
49131;SDS011;35149;51.196;6.204;2023-07-09T07:03:15;13.13;;;7.55;;
49131;SDS011;35149;51.196;6.204;2023-07-09T07:05:44;12.13;;;6.57;;
49131;SDS011;35149;51.196;6.204;2023-07-09T07:08:13;11.82;;;6.28;;
49131;SDS011;35149;51.196;6.204;2023-07-09T07:10:41;8.57;;;5.35;;
49131;SDS011;35149;51.196;6.204;2023-07-09T07:13:10;12.02;;;7.28;;
49131;SDS011;35149;51.196;6.204;2023-07-09T07:15:37;11.50;;;5.75;;
49131;SDS011;35149;51.196;6.204;2023-07-09T07:18:04;7.82;;;6.85;;
49131;SDS011;35149;51.196;6.204;2023-07-09T07:20:32;9.48;;;6.43;;
49131;SDS011;35149;51.196;6.204;2023-07-09T07:22:59;8.02;;;6.07;;
49131;SDS011;35149;51.196;6.204;2023-07-09T07:25:26;9.73;;;5.93;;
49131;SDS011;35149;51.196;6.204;2023-07-09T07:27:53;11.23;;;6.80;;
49131;SDS011;35149;51.196;6.204;2023-07-09T07:30:20;8.85;;;5.80;;
49131;SDS011;35149;51.196;6.204;2023-07-09T07:32:50;7.25;;;5.60;;
49131;SDS011;35149;51.196;6.204;2023-07-09T07:35:17;10.23;;;6.45;;
49131;SDS011;35149;51.196;6.204;2023-07-09T07:37:45;8.23;;;5.47;;
49131;SDS011;35149;51.196;6.204;2023-07-09T07:40:12;6.93;;;5.93;;
49131;SDS011;35149;51.196;6.204;2023-07-09T07:42:39;7.00;;;5.50;;
49131;SDS011;35149;51.196;6.204;2023-07-09T07:45:05;6.20;;;5.55;;
49131;SDS011;35149;51.196;6.204;2023-07-09T07:47:35;7.78;;;5.65;;
49131;SDS011;35149;51.196;6.204;2023-07-09T07:50:05;8.10;;;5.97;;
49131;SDS011;35149;51.196;6.204;2023-07-09T07:52:33;8.25;;;5.22;;
49131;SDS011;35149;51.196;6.204;2023-07-09T07:55:06;8.10;;;5.60;;
49131;SDS011;35149;51.196;6.204;2023-07-09T07:57:37;5.93;;;5.10;;
49131;SDS011;35149;51.196;6.204;2023-07-09T08:00:04;9.98;;;5.82;;
49131;SDS011;35149;51.196;6.204;2023-07-09T08:02:37;6.07;;;5.38;;
49131;SDS011;35149;51.196;6.204;2023-07-09T08:05:05;6.88;;;5.60;;
49131;SDS011;35149;51.196;6.204;2023-07-09T08:07:32;9.55;;;5.45;;
49131;SDS011;35149;51.196;6.204;2023-07-09T08:09:58;9.57;;;5.72;;
49131;SDS011;35149;51.196;6.204;2023-07-09T08:12:25;6.57;;;5.10;;
49131;SDS011;35149;51.196;6.204;2023-07-09T08:14:52;8.65;;;5.47;;
49131;SDS011;35149;51.196;6.204;2023-07-09T08:17:18;7.45;;;5.57;;
49131;SDS011;35149;51.196;6.204;2023-07-09T08:19:46;7.45;;;4.88;;
49131;SDS011;35149;51.196;6.204;2023-07-09T08:22:14;8.27;;;5.47;;
49131;SDS011;35149;51.196;6.204;2023-07-09T08:24:41;6.22;;;5.63;;
49131;SDS011;35149;51.196;6.204;2023-07-09T08:27:11;10.43;;;5.18;;
49131;SDS011;35149;51.196;6.204;2023-07-09T08:29:38;7.43;;;4.80;;
49131;SDS011;35149;51.196;6.204;2023-07-09T08:32:06;5.85;;;5.10;;
49131;SDS011;35149;51.196;6.204;2023-07-09T08:34:33;5.72;;;5.13;;
49131;SDS011;35149;51.196;6.204;2023-07-09T08:37:00;7.20;;;4.72;;
49131;SDS011;35149;51.196;6.204;2023-07-09T08:39:27;5.78;;;5.15;;
49131;SDS011;35149;51.196;6.204;2023-07-09T08:41:57;8.45;;;5.45;;
49131;SDS011;35149;51.196;6.204;2023-07-09T08:47:31;7.78;;;5.40;;
49131;SDS011;35149;51.196;6.204;2023-07-09T08:50:24;7.72;;;4.65;;
49131;SDS011;35149;51.196;6.204;2023-07-09T08:53:00;5.15;;;4.45;;
49131;SDS011;35149;51.196;6.204;2023-07-09T08:55:29;5.78;;;4.72;;
49131;SDS011;35149;51.196;6.204;2023-07-09T08:58:13;5.28;;;4.78;;
49131;SDS011;35149;51.196;6.204;2023-07-09T09:00:56;5.95;;;4.20;;
49131;SDS011;35149;51.196;6.204;2023-07-09T09:06:40;5.32;;;4.57;;
49131;SDS011;35149;51.196;6.204;2023-07-09T09:14:52;5.97;;;4.38;;
49131;SDS011;35149;51.196;6.204;2023-07-09T09:17:25;4.60;;;4.22;;
49131;SDS011;35149;51.196;6.204;2023-07-09T09:19:56;6.78;;;4.63;;
49131;SDS011;35149;51.196;6.204;2023-07-09T09:22:27;5.10;;;4.35;;
49131;SDS011;35149;51.196;6.204;2023-07-09T09:27:53;6.88;;;4.25;;
49131;SDS011;35149;51.196;6.204;2023-07-09T09:30:21;6.07;;;4.10;;
49131;SDS011;35149;51.196;6.204;2023-07-09T09:32:57;6.15;;;4.15;;
49131;SDS011;35149;51.196;6.204;2023-07-09T09:35:29;4.68;;;4.05;;
49131;SDS011;35149;51.196;6.204;2023-07-09T09:37:58;7.13;;;4.55;;
49131;SDS011;35149;51.196;6.204;2023-07-09T09:40:27;7.38;;;3.92;;
49131;SDS011;35149;51.196;6.204;2023-07-09T09:42:56;7.80;;;4.60;;
49131;SDS011;35149;51.196;6.204;2023-07-09T09:45:31;4.55;;;4.15;;
49131;SDS011;35149;51.196;6.204;2023-07-09T09:48:09;7.28;;;5.00;;
49131;SDS011;35149;51.196;6.204;2023-07-09T09:50:45;7.15;;;4.03;;
49131;SDS011;35149;51.196;6.204;2023-07-09T09:53:23;6.55;;;4.40;;
49131;SDS011;35149;51.196;6.204;2023-07-09T09:55:51;5.13;;;3.50;;
49131;SDS011;35149;51.196;6.204;2023-07-09T09:58:19;8.43;;;4.47;;
49131;SDS011;35149;51.196;6.204;2023-07-09T10:00:47;6.55;;;3.70;;
49131;SDS011;35149;51.196;6.204;2023-07-09T10:03:17;4.78;;;4.38;;
49131;SDS011;35149;51.196;6.204;2023-07-09T10:05:50;8.27;;;4.20;;
49131;SDS011;35149;51.196;6.204;2023-07-09T10:08:34;5.07;;;4.15;;
49131;SDS011;35149;51.196;6.204;2023-07-09T10:11:29;4.63;;;3.75;;
49131;SDS011;35149;51.196;6.204;2023-07-09T10:14:17;3.95;;;3.15;;
49131;SDS011;35149;51.196;6.204;2023-07-09T10:17:15;6.40;;;4.82;;
49131;SDS011;35149;51.196;6.204;2023-07-09T10:25:37;6.03;;;3.33;;
49131;SDS011;35149;51.196;6.204;2023-07-09T10:28:31;4.35;;;3.58;;
49131;SDS011;35149;51.196;6.204;2023-07-09T10:31:18;4.25;;;3.90;;
49131;SDS011;35149;51.196;6.204;2023-07-09T10:39:17;6.25;;;4.28;;
49131;SDS011;35149;51.196;6.204;2023-07-09T10:41:50;4.70;;;3.88;;
49131;SDS011;35149;51.196;6.204;2023-07-09T10:44:23;6.45;;;3.95;;
49131;SDS011;35149;51.196;6.204;2023-07-09T10:46:58;6.35;;;3.75;;
49131;SDS011;35149;51.196;6.204;2023-07-09T10:49:31;3.90;;;3.50;;
49131;SDS011;35149;51.196;6.204;2023-07-09T10:52:16;4.72;;;3.75;;
49131;SDS011;35149;51.196;6.204;2023-07-09T10:55:41;5.97;;;4.05;;
49131;SDS011;35149;51.196;6.204;2023-07-09T10:57:46;4.30;;;3.78;;
49131;SDS011;35149;51.196;6.204;2023-07-09T11:00:27;4.15;;;3.85;;
49131;SDS011;35149;51.196;6.204;2023-07-09T11:03:47;4.57;;;3.58;;
49131;SDS011;35149;51.196;6.204;2023-07-09T11:06:00;4.68;;;3.40;;
49131;SDS011;35149;51.196;6.204;2023-07-09T11:08:32;4.25;;;3.85;;
49131;SDS011;35149;51.196;6.204;2023-07-09T11:11:03;5.55;;;3.92;;
49131;SDS011;35149;51.196;6.204;2023-07-09T11:16:20;3.95;;;3.20;;
49131;SDS011;35149;51.196;6.204;2023-07-09T11:18:58;5.63;;;3.85;;
49131;SDS011;35149;51.196;6.204;2023-07-09T11:21:26;4.57;;;2.88;;
49131;SDS011;35149;51.196;6.204;2023-07-09T11:23:54;3.88;;;3.25;;
49131;SDS011;35149;51.196;6.204;2023-07-09T11:28:56;4.80;;;3.72;;
49131;SDS011;35149;51.196;6.204;2023-07-09T11:31:45;3.75;;;3.35;;
49131;SDS011;35149;51.196;6.204;2023-07-09T11:36:59;3.85;;;3.30;;
49131;SDS011;35149;51.196;6.204;2023-07-09T11:39:28;3.90;;;3.25;;
49131;SDS011;35149;51.196;6.204;2023-07-09T11:42:22;3.95;;;3.65;;
49131;SDS011;35149;51.196;6.204;2023-07-09T11:45:10;3.60;;;3.20;;
49131;SDS011;35149;51.196;6.204;2023-07-09T11:47:41;4.57;;;3.58;;
49131;SDS011;35149;51.196;6.204;2023-07-09T11:50:21;4.53;;;3.55;;
49131;SDS011;35149;51.196;6.204;2023-07-09T11:53:01;6.90;;;3.60;;
49131;SDS011;35149;51.196;6.204;2023-07-09T11:55:41;4.40;;;3.22;;
49131;SDS011;35149;51.196;6.204;2023-07-09T11:58:15;3.58;;;2.95;;
49131;SDS011;35149;51.196;6.204;2023-07-09T12:00:48;5.65;;;3.83;;
49131;SDS011;35149;51.196;6.204;2023-07-09T12:03:28;6.82;;;3.95;;
49131;SDS011;35149;51.196;6.204;2023-07-09T12:06:03;3.58;;;3.28;;
49131;SDS011;35149;51.196;6.204;2023-07-09T12:08:34;3.90;;;3.50;;
49131;SDS011;35149;51.196;6.204;2023-07-09T12:11:04;5.65;;;3.63;;
49131;SDS011;35149;51.196;6.204;2023-07-09T12:13:38;5.45;;;3.63;;
49131;SDS011;35149;51.196;6.204;2023-07-09T12:16:21;3.63;;;2.90;;
49131;SDS011;35149;51.196;6.204;2023-07-09T12:18:50;3.22;;;2.90;;
49131;SDS011;35149;51.196;6.204;2023-07-09T12:21:18;4.40;;;3.33;;
49131;SDS011;35149;51.196;6.204;2023-07-09T12:23:48;4.05;;;3.13;;
49131;SDS011;35149;51.196;6.204;2023-07-09T12:26:23;3.40;;;3.10;;
49131;SDS011;35149;51.196;6.204;2023-07-09T12:28:52;3.60;;;3.30;;
49131;SDS011;35149;51.196;6.204;2023-07-09T12:31:25;4.40;;;3.25;;
49131;SDS011;35149;51.196;6.204;2023-07-09T12:33:59;3.35;;;2.97;;
49131;SDS011;35149;51.196;6.204;2023-07-09T12:36:26;3.78;;;3.45;;
49131;SDS011;35149;51.196;6.204;2023-07-09T12:39:00;5.03;;;3.78;;
49131;SDS011;35149;51.196;6.204;2023-07-09T12:41:35;4.97;;;3.08;;
49131;SDS011;35149;51.196;6.204;2023-07-09T12:44:13;4.70;;;3.60;;
49131;SDS011;35149;51.196;6.204;2023-07-09T12:46:50;6.40;;;3.90;;
49131;SDS011;35149;51.196;6.204;2023-07-09T12:49:26;4.18;;;3.78;;
49131;SDS011;35149;51.196;6.204;2023-07-09T12:52:02;3.38;;;3.03;;
49131;SDS011;35149;51.196;6.204;2023-07-09T12:54:57;5.18;;;3.47;;
49131;SDS011;35149;51.196;6.204;2023-07-09T12:57:31;4.65;;;3.47;;
49131;SDS011;35149;51.196;6.204;2023-07-09T13:00:05;4.28;;;3.67;;
49131;SDS011;35149;51.196;6.204;2023-07-09T13:02:50;4.60;;;3.42;;
49131;SDS011;35149;51.196;6.204;2023-07-09T13:05:26;3.67;;;3.20;;
49131;SDS011;35149;51.196;6.204;2023-07-09T13:07:59;4.18;;;3.35;;
49131;SDS011;35149;51.196;6.204;2023-07-09T13:10:29;5.53;;;3.55;;
49131;SDS011;35149;51.196;6.204;2023-07-09T13:13:02;5.18;;;3.50;;
49131;SDS011;35149;51.196;6.204;2023-07-09T13:15:31;4.47;;;3.65;;
49131;SDS011;35149;51.196;6.204;2023-07-09T13:18:11;4.35;;;3.35;;
49131;SDS011;35149;51.196;6.204;2023-07-09T13:20:42;4.13;;;3.50;;
49131;SDS011;35149;51.196;6.204;2023-07-09T13:23:20;3.83;;;3.53;;
49131;SDS011;35149;51.196;6.204;2023-07-09T13:25:50;5.63;;;3.67;;
49131;SDS011;35149;51.196;6.204;2023-07-09T13:28:24;4.65;;;3.25;;
49131;SDS011;35149;51.196;6.204;2023-07-09T13:30:56;7.85;;;3.78;;
49131;SDS011;35149;51.196;6.204;2023-07-09T13:33:28;9.27;;;3.60;;
49131;SDS011;35149;51.196;6.204;2023-07-09T13:35:57;7.32;;;3.92;;
49131;SDS011;35149;51.196;6.204;2023-07-09T13:38:46;7.07;;;3.58;;
49131;SDS011;35149;51.196;6.204;2023-07-09T13:41:14;8.38;;;4.50;;
49131;SDS011;35149;51.196;6.204;2023-07-09T13:43:44;7.47;;;5.30;;
49131;SDS011;35149;51.196;6.204;2023-07-09T13:46:13;7.05;;;4.57;;
49131;SDS011;35149;51.196;6.204;2023-07-09T13:48:41;3.55;;;2.80;;
49131;SDS011;35149;51.196;6.204;2023-07-09T13:53:51;5.57;;;2.78;;
49131;SDS011;35149;51.196;6.204;2023-07-09T13:56:20;4.75;;;3.17;;
49131;SDS011;35149;51.196;6.204;2023-07-09T13:58:47;4.35;;;3.60;;
49131;SDS011;35149;51.196;6.204;2023-07-09T14:01:20;7.40;;;4.68;;
49131;SDS011;35149;51.196;6.204;2023-07-09T14:03:51;5.68;;;4.40;;
49131;SDS011;35149;51.196;6.204;2023-07-09T14:06:24;7.72;;;4.43;;
49131;SDS011;35149;51.196;6.204;2023-07-09T14:08:52;5.07;;;3.95;;
49131;SDS011;35149;51.196;6.204;2023-07-09T14:11:21;6.88;;;4.82;;
49131;SDS011;35149;51.196;6.204;2023-07-09T14:13:51;8.75;;;5.78;;
49131;SDS011;35149;51.196;6.204;2023-07-09T14:16:26;5.75;;;5.15;;
49131;SDS011;35149;51.196;6.204;2023-07-09T14:18:58;6.68;;;4.90;;
49131;SDS011;35149;51.196;6.204;2023-07-09T14:21:25;8.82;;;5.32;;
49131;SDS011;35149;51.196;6.204;2023-07-09T14:23:58;9.68;;;6.15;;
49131;SDS011;35149;51.196;6.204;2023-07-09T14:26:34;9.27;;;6.32;;
49131;SDS011;35149;51.196;6.204;2023-07-09T14:29:03;16.10;;;7.25;;
49131;SDS011;35149;51.196;6.204;2023-07-09T14:31:32;39.23;;;7.90;;
49131;SDS011;35149;51.196;6.204;2023-07-09T14:36:43;6.32;;;5.78;;
49131;SDS011;35149;51.196;6.204;2023-07-09T14:39:16;5.90;;;4.53;;
49131;SDS011;35149;51.196;6.204;2023-07-09T14:41:48;5.57;;;5.07;;
49131;SDS011;35149;51.196;6.204;2023-07-09T14:44:22;8.13;;;5.35;;
49131;SDS011;35149;51.196;6.204;2023-07-09T14:46:57;5.10;;;4.60;;
49131;SDS011;35149;51.196;6.204;2023-07-09T14:49:27;5.28;;;4.78;;
49131;SDS011;35149;51.196;6.204;2023-07-09T14:51:55;6.43;;;4.63;;
49131;SDS011;35149;51.196;6.204;2023-07-09T14:54:26;5.85;;;4.32;;
49131;SDS011;35149;51.196;6.204;2023-07-09T14:56:57;6.53;;;4.45;;
49131;SDS011;35149;51.196;6.204;2023-07-09T14:59:24;5.68;;;5.13;;
49131;SDS011;35149;51.196;6.204;2023-07-09T15:01:55;7.78;;;4.95;;
49131;SDS011;35149;51.196;6.204;2023-07-09T15:06:49;7.35;;;5.57;;
49131;SDS011;35149;51.196;6.204;2023-07-09T15:09:18;5.97;;;5.38;;
49131;SDS011;35149;51.196;6.204;2023-07-09T15:11:47;8.23;;;5.53;;
49131;SDS011;35149;51.196;6.204;2023-07-09T15:14:26;5.95;;;5.45;;
49131;SDS011;35149;51.196;6.204;2023-07-09T15:16:59;6.70;;;5.50;;
49131;SDS011;35149;51.196;6.204;2023-07-09T15:19:27;6.00;;;5.18;;
49131;SDS011;35149;51.196;6.204;2023-07-09T15:21:54;6.95;;;5.72;;
49131;SDS011;35149;51.196;6.204;2023-07-09T15:24:27;5.85;;;5.28;;
49131;SDS011;35149;51.196;6.204;2023-07-09T15:26:57;7.43;;;5.78;;
49131;SDS011;35149;51.196;6.204;2023-07-09T15:29:28;8.68;;;7.78;;
49131;SDS011;35149;51.196;6.204;2023-07-09T15:31:58;9.85;;;8.85;;
49131;SDS011;35149;51.196;6.204;2023-07-09T15:34:30;8.45;;;7.45;;
49131;SDS011;35149;51.196;6.204;2023-07-09T15:36:56;6.60;;;5.88;;
49131;SDS011;35149;51.196;6.204;2023-07-09T15:39:25;6.65;;;6.05;;
49131;SDS011;35149;51.196;6.204;2023-07-09T15:41:52;7.18;;;6.38;;
49131;SDS011;35149;51.196;6.204;2023-07-09T15:44:21;6.50;;;5.88;;
49131;SDS011;35149;51.196;6.204;2023-07-09T15:46:53;7.63;;;6.43;;
49131;SDS011;35149;51.196;6.204;2023-07-09T15:49:22;6.97;;;6.28;;
49131;SDS011;35149;51.196;6.204;2023-07-09T15:51:55;7.07;;;6.38;;
49131;SDS011;35149;51.196;6.204;2023-07-09T15:54:25;7.10;;;6.22;;
49131;SDS011;35149;51.196;6.204;2023-07-09T15:57:00;7.82;;;5.72;;
49131;SDS011;35149;51.196;6.204;2023-07-09T15:59:31;6.53;;;5.00;;
49131;SDS011;35149;51.196;6.204;2023-07-09T16:02:02;5.85;;;5.35;;